Time;durP1;ratioP1;P1;durP2;ratioP2;P2;SDS_P1;SDS_P2;PMS_P1;PMS_P2;Temp;Humidity;BMP_temperature;BMP_pressure;BME280_temperature;BME280_humidity;BME280_pressure;Samples;Min_cycle;Max_cycle;Signal;HPM_P1;HPM_P2
2024/02/04 00:00:10;;;;;;;27.52;19.45;;;7.70;99.90;;;-144.05;93.08;56978.41;5091356;28;20043;-80
2024/02/04 00:02:38;;;;;;;28.52;18.25;;;7.10;99.90;;;-144.05;93.46;57008.13;5099967;28;20360;-80
2024/02/04 00:05:04;;;;;;;32.38;19.13;;;6.90;99.90;;;-144.05;93.12;56989.00;5091945;28;20032;-79
2024/02/04 00:07:31;;;;;;;22.98;16.20;;;7.60;99.90;;;-144.05;92.96;57006.00;5104027;28;20027;-82
2024/02/04 00:09:57;;;;;;;23.48;16.20;;;8.00;99.90;;;-144.05;92.99;56969.91;5094707;28;20028;-79
2024/02/04 00:12:23;;;;;;;22.27;15.77;;;7.10;99.90;;;-144.05;92.19;56997.50;5092461;28;20024;-80
2024/02/04 00:14:49;;;;;;;23.67;16.02;;;;;;;-144.05;92.26;56974.16;5093524;28;20028;-80
2024/02/04 00:17:16;;;;;;;23.23;15.18;;;7.70;99.90;;;-144.05;92.42;56991.13;5096401;28;20034;-83
2024/02/04 00:19:43;;;;;;;20.25;13.55;;;;;;;-144.05;92.79;56997.50;5115514;28;20060;-79
2024/02/04 00:22:09;;;;;;;17.75;12.95;;;7.20;99.90;;;-144.05;92.26;56984.78;5100625;28;20047;-81
2024/02/04 00:24:35;;;;;;;22.80;14.07;;;;;;;-144.05;92.29;56967.78;5093908;28;20046;-82
2024/02/04 00:27:01;;;;;;;19.55;13.70;;;14.40;99.90;;;-144.05;91.81;57008.13;5105970;28;20028;-82
2024/02/04 00:29:27;;;;;;;16.25;12.13;;;;;;;-144.05;93.09;57003.88;5110038;28;20459;-81
2024/02/04 00:31:53;;;;;;;17.58;13.10;;;7.40;99.90;;;-144.05;93.23;56991.13;5096342;28;20069;-81
2024/02/04 00:34:19;;;;;;;14.98;11.90;;;;;;;-144.05;92.98;56991.13;5096363;28;20036;-83
2024/02/04 00:36:45;;;;;;;17.02;11.25;;;6.80;99.90;;;-144.05;93.26;56993.25;5094592;28;20116;-82
2024/02/04 00:39:11;;;;;;;14.75;11.93;;;7.30;99.90;;;-144.05;93.72;56997.50;5103667;28;20049;-81
2024/02/04 00:41:37;;;;;;;15.57;10.57;;;;;;;-144.05;93.86;57020.88;5103240;28;20103;-80
2024/02/04 00:44:03;;;;;;;19.67;12.35;;;14.40;99.90;;;-144.05;93.60;57008.13;5095634;28;20392;-80
2024/02/04 00:46:29;;;;;;;17.65;11.30;;;7.90;99.90;;;-144.05;93.79;57018.75;5102170;28;20032;-80
2024/02/04 00:48:55;;;;;;;13.55;10.98;;;6.90;99.90;;;-144.05;93.48;57003.88;5094881;28;20554;-78
2024/02/04 00:51:22;;;;;;;16.33;11.30;;;;;;;-144.05;92.84;56997.50;5094663;28;20028;-80
2024/02/04 00:53:47;;;;;;;13.90;10.70;;;6.90;99.90;;;-144.05;93.00;56980.53;5094992;28;20080;-79
2024/02/04 00:56:14;;;;;;;14.32;9.77;;;;;;;-144.05;92.67;56995.38;5095471;28;20116;-78
2024/02/04 00:58:39;;;;;;;14.20;9.68;;;7.20;99.90;;;-144.05;92.35;56984.78;5094870;28;20028;-81
2024/02/04 01:01:06;;;;;;;9.80;7.88;;;;;;;-144.05;92.46;57014.50;5096401;28;20436;-80
2024/02/04 01:03:32;;;;;;;11.25;7.95;;;7.70;99.90;;;-144.05;93.14;56997.50;5094628;28;20028;-81
2024/02/04 01:05:58;;;;;;;8.60;7.15;;;;;;;-144.05;93.48;56999.63;5094010;28;20051;-81
2024/02/04 01:08:24;;;;;;;9.32;6.47;;;;;;;-144.05;93.52;56989.00;5093146;28;20541;-81
2024/02/04 01:10:51;;;;;;;9.68;6.40;;;7.00;99.90;;;-144.05;93.74;56980.53;5094527;28;20042;-81
2024/02/04 01:13:17;;;;;;;6.95;5.82;;;7.20;99.90;;;-144.05;93.05;56993.25;5101152;28;20115;-79
2024/02/04 01:15:44;;;;;;;7.53;5.55;;;;;;;-144.05;93.65;56984.78;5093948;28;20024;-79
2024/02/04 01:18:09;;;;;;;6.85;5.85;;;7.50;99.90;;;-144.05;95.36;57006.00;5092779;28;20110;-79
2024/02/04 01:20:35;;;;;;;6.03;5.40;;;11.30;99.90;;;-144.05;95.22;56989.00;5093886;28;20064;-78
2024/02/04 01:23:02;;;;;;;8.43;4.88;;;;;;;-144.05;96.01;56980.53;5093900;28;20032;-78
2024/02/04 01:25:28;;;;;;;5.82;4.65;;;;;;;-144.05;95.99;57010.25;5093251;28;20137;-77
2024/02/04 01:27:54;;;;;;;5.07;3.88;;;;;;;-144.05;95.96;57006.00;5099912;28;20058;-78
2024/02/04 01:30:20;;;;;;;5.05;4.10;;;;;;;-144.05;95.78;56997.50;5094070;28;20199;-78
2024/02/04 01:32:46;;;;;;;6.47;4.50;;;6.60;99.90;;;-144.05;95.73;56984.78;5101355;28;20388;-81
2024/02/04 01:35:13;;;;;;;7.47;3.10;;;;;;;-144.05;96.52;57027.25;5102660;28;20102;-79
2024/02/04 01:37:39;;;;;;;4.00;3.08;;;;;;;-144.05;96.60;57010.25;5099285;28;20024;-80
2024/02/04 01:40:06;;;;;;;2.88;2.42;;;14.00;99.90;;;-144.05;96.74;57001.75;5092771;28;20028;-79
2024/02/04 01:42:32;;;;;;;4.85;2.85;;;;;;;-144.05;96.59;57014.50;5094569;28;20350;-81
2024/02/04 01:44:58;;;;;;;3.80;3.03;;;14.40;99.90;;;-144.05;96.19;56999.63;5101759;28;20024;-80
2024/02/04 01:47:24;;;;;;;3.17;2.85;;;7.60;99.90;;;-144.05;96.45;56997.50;5094372;28;20035;-81
2024/02/04 01:49:50;;;;;;;4.10;2.95;;;7.10;99.90;;;-144.05;97.37;57014.50;5094461;28;20479;-79
2024/02/04 01:52:17;;;;;;;4.40;2.50;;;;;;;-144.05;97.46;57001.75;5093051;28;20031;-79
2024/02/04 01:54:44;;;;;;;3.80;3.30;;;6.90;99.90;;;-144.05;97.41;57012.38;5094343;28;20020;-82
2024/02/04 01:57:13;;;;;;;3.88;3.25;;;9.70;99.90;;;-144.05;97.34;57001.75;5095499;28;20024;-81
2024/02/04 01:59:40;;;;;;;4.05;3.05;;;7.00;99.90;;;-144.05;96.80;56991.13;5094769;28;20031;-81
2024/02/04 02:02:07;;;;;;;4.25;3.00;;;;;;;-144.05;97.47;57014.50;5093502;28;20081;-81
2024/02/04 02:04:33;;;;;;;5.50;2.63;;;;;;;-144.05;97.41;57006.00;5094135;28;20459;-78
2024/02/04 02:07:00;;;;;;;3.60;2.50;;;7.00;99.90;;;-144.05;97.46;57031.50;5093523;28;20024;-82
2024/02/04 02:09:29;;;;;;;5.57;3.00;;;;;;;-144.05;96.97;57029.38;5097967;28;20106;-83
2024/02/04 02:12:12;;;;;;;4.32;3.13;;;7.50;99.90;;;-144.05;97.40;56982.66;5104979;28;20198;-83
2024/02/04 02:15:15;;;;;;;3.47;2.58;;;7.20;99.90;;;-144.05;97.41;57018.75;5094307;28;20028;-81
2024/02/04 02:18:07;;;;;;;4.18;2.53;;;7.30;99.90;;;-144.05;97.17;56980.53;5100456;28;20024;-79
2024/02/04 02:20:55;;;;;;;3.35;2.75;;;6.80;99.90;;;-144.05;97.20;57003.88;5095153;28;20604;-80
2024/02/04 02:23:38;;;;;;;3.42;2.83;;;14.60;99.90;;;-144.05;96.57;56997.50;5101345;28;20485;-83
2024/02/04 02:26:06;;;;;;;4.15;3.40;;;7.80;99.90;;;-144.05;97.63;56980.53;5110060;28;20032;-78
2024/02/04 02:28:32;;;;;;;3.45;3.15;;;;;;;-144.05;97.38;56993.25;5115314;28;20477;-80
2024/02/04 02:30:58;;;;;;;5.00;2.70;;;6.90;99.90;;;-144.05;96.85;57016.63;5102048;28;20020;-80
2024/02/04 02:33:25;;;;;;;3.65;3.20;;;;;;;-144.05;96.14;57018.75;5111926;28;20026;-81
2024/02/04 02:36:01;;;;;;;6.15;3.85;;;9.70;99.90;;;-144.05;96.44;56984.78;5104226;28;20170;-80
2024/02/04 02:38:46;;;;;;;6.50;4.20;;;9.70;99.90;;;-144.05;97.00;57008.13;5100327;28;20103;-78
2024/02/04 02:41:18;;;;;;;6.53;4.88;;;9.70;99.90;;;-144.05;97.36;57006.00;5093110;28;20091;-78
2024/02/04 02:43:46;;;;;;;7.35;5.60;;;7.10;99.90;;;-144.05;96.57;56991.13;5104643;28;20473;-81
2024/02/04 02:46:12;;;;;;;9.63;6.20;;;7.30;99.90;;;-144.05;96.80;56986.91;5100699;28;20024;-79
2024/02/04 02:48:38;;;;;;;8.32;6.28;;;14.10;99.90;;;-144.05;97.28;56984.78;5099481;28;20031;-80
2024/02/04 02:51:05;;;;;;;11.30;7.30;;;14.40;99.90;;;-144.05;96.73;56980.53;5092009;28;20017;-81
2024/02/04 02:53:31;;;;;;;10.15;7.47;;;;;;;-144.05;96.62;56972.03;5090910;28;20051;-79
2024/02/04 02:55:58;;;;;;;10.73;7.40;;;;;;;-144.05;96.98;57006.00;5098940;28;20045;-79
2024/02/04 02:58:23;;;;;;;11.02;7.50;;;10.80;99.90;;;-144.05;96.88;57023.00;5091995;28;20107;-80
2024/02/04 03:00:50;;;;;;;14.52;9.18;;;;;;;-144.05;96.64;56995.38;5098808;28;20059;-77
2024/02/04 03:03:16;;;;;;;13.95;10.57;;;;;;;-144.05;95.97;56993.25;5103443;28;20114;-77
2024/02/04 03:05:42;;;;;;;16.52;12.15;;;;;;;-144.05;97.09;57027.25;5105774;28;20489;-78
2024/02/04 03:08:08;;;;;;;14.50;11.23;;;;;;;-144.05;96.21;56993.25;5092267;28;20032;-79
2024/02/04 03:10:35;;;;;;;18.40;12.52;;;;;;;-144.05;96.45;57023.00;5103933;28;20015;-82
2024/02/04 03:13:02;;;;;;;19.27;13.38;;;7.20;99.90;;;-144.05;95.72;57010.25;5105729;28;20028;-79
2024/02/04 03:15:28;;;;;;;18.75;14.15;;;;;;;-144.05;94.85;56997.50;5102641;28;20336;-81
2024/02/04 03:17:54;;;;;;;20.23;16.08;;;;;;;-144.05;96.03;57008.13;5094647;28;20099;-82
2024/02/04 03:20:20;;;;;;;24.42;16.95;;;;;;;-144.05;95.07;56989.00;5110005;28;20060;-80
2024/02/04 03:22:49;;;;;;;23.65;16.70;;;7.00;99.90;;;-144.05;95.84;57012.38;5091202;28;20028;-80
2024/02/04 03:25:15;;;;;;;27.48;17.08;;;7.40;99.90;;;-144.05;94.89;56965.66;5106245;28;20377;-80
2024/02/04 03:27:42;;;;;;;25.40;17.92;;;;;;;-144.05;95.16;56999.63;5091919;28;20069;-82
2024/02/04 03:30:08;;;;;;;27.45;17.77;;;;;;;-144.05;94.88;57008.13;5089900;28;20039;-81
2024/02/04 03:32:35;;;;;;;26.75;18.10;;;;;;;-144.05;94.72;57008.13;5090558;28;20105;-80
2024/02/04 03:35:02;;;;;;;26.00;18.15;;;10.00;99.90;;;-144.05;93.92;56989.00;5089937;28;20512;-78
2024/02/04 03:37:28;;;;;;;24.50;15.77;;;7.50;99.90;;;-144.05;93.96;56984.78;5091139;28;20036;-81
2024/02/04 03:39:54;;;;;;;25.52;17.48;;;;;;;-144.05;94.05;56991.13;5091508;28;20028;-79
2024/02/04 03:42:22;;;;;;;25.83;17.65;;;7.40;99.90;;;-144.05;94.41;57018.75;5091587;28;20028;-80
2024/02/04 03:44:48;;;;;;;25.85;15.90;;;10.70;99.90;;;-144.05;94.06;57010.25;5098692;28;20449;-81
2024/02/04 03:47:14;;;;;;;25.25;16.50;;;;;;;-144.05;94.00;57020.88;5108555;28;20116;-81
2024/02/04 03:49:40;;;;;;;33.20;17.98;;;9.80;99.90;;;-144.05;94.71;56993.25;5090355;28;20153;-80
2024/02/04 03:52:06;;;;;;;27.45;17.85;;;8.30;99.90;;;-144.05;93.83;56993.25;5105512;28;20485;-79
2024/02/04 03:54:32;;;;;;;28.23;18.90;;;7.40;99.90;;;-144.05;94.17;56993.25;5110710;28;20038;-81
2024/02/04 03:56:58;;;;;;;29.67;19.10;;;11.00;99.90;;;-144.05;94.69;57001.75;5094251;28;20626;-78
2024/02/04 03:59:24;;;;;;;32.83;18.85;;;7.40;99.90;;;-144.05;94.39;56993.25;5100216;28;20362;-80
2024/02/04 04:01:53;;;;;;;29.13;18.27;;;;;;;-144.05;94.29;57035.75;5090214;28;20020;-81
2024/02/04 04:04:19;;;;;;;30.83;19.83;;;;;;;-144.05;94.11;57018.75;5091214;28;20028;-81
2024/02/04 04:06:46;;;;;;;30.83;19.30;;;14.60;99.90;;;-144.05;94.04;57006.00;5090501;28;20024;-79
2024/02/04 04:09:13;;;;;;;32.38;19.27;;;;;;;-144.05;93.23;56997.50;5099548;28;20020;-81
2024/02/04 04:11:40;;;;;;;35.42;19.33;;;9.90;99.90;;;-144.05;92.96;56986.91;5091183;28;20097;-80
2024/02/04 04:14:07;;;;;;;31.77;18.88;;;14.40;99.90;;;-144.05;93.60;56986.91;5090426;28;20381;-80
2024/02/04 04:16:32;;;;;;;37.13;20.77;;;7.70;99.90;;;-144.05;93.12;56978.41;5102693;28;20377;-81
2024/02/04 04:18:59;;;;;;;33.13;19.30;;;;;;;-144.05;93.27;56982.66;5093654;28;20114;-79
2024/02/04 04:21:25;;;;;;;37.60;21.48;;;7.10;99.90;;;-144.05;93.61;56997.50;5091083;28;20111;-79
2024/02/04 04:23:50;;;;;;;41.38;23.13;;;7.20;99.90;;;-144.05;93.70;57001.75;5089682;28;20039;-79
2024/02/04 04:26:17;;;;;;;40.25;23.13;;;;;;;-144.05;94.20;56999.63;5107218;28;20029;-80
2024/02/04 04:28:42;;;;;;;38.10;23.75;;;7.90;99.90;;;-144.05;95.15;56982.66;5097141;28;20102;-80
2024/02/04 04:31:08;;;;;;;36.67;22.33;;;11.40;99.90;;;-144.05;94.75;57023.00;5091152;28;20056;-79
2024/02/04 04:33:36;;;;;;;35.20;21.63;;;7.80;99.90;;;-144.05;95.51;56989.00;5090911;28;20066;-80
2024/02/04 04:36:02;;;;;;;35.03;21.95;;;10.90;99.90;;;-144.05;94.94;57012.38;5089024;28;20108;-79
2024/02/04 04:38:28;;;;;;;35.17;21.70;;;14.10;99.90;;;-144.05;94.69;57003.88;5097348;28;20020;-80
2024/02/04 04:40:54;;;;;;;34.95;20.48;;;;;;;-144.05;96.18;57003.88;5098529;28;20016;-79
2024/02/04 04:43:20;;;;;;;36.42;21.77;;;7.90;99.90;;;-144.05;96.35;56997.50;5088953;28;20046;-79
2024/02/04 04:45:46;;;;;;;32.55;19.55;;;;;;;-144.05;94.73;56993.25;5090223;28;20073;-80
2024/02/04 04:48:12;;;;;;;34.75;20.77;;;7.20;99.90;;;-144.05;95.02;57016.63;5090382;28;20423;-81
2024/02/04 04:50:38;;;;;;;33.83;20.55;;;7.30;99.90;;;-144.05;94.84;56978.41;5088828;28;20024;-82
2024/02/04 04:53:04;;;;;;;29.65;18.40;;;7.20;99.90;;;-144.05;94.18;57027.25;5090252;28;20089;-79
2024/02/04 04:55:30;;;;;;;30.48;17.77;;;7.20;99.90;;;-144.05;95.02;56997.50;5096778;28;20024;-79
2024/02/04 04:57:56;;;;;;;27.40;17.30;;;8.40;99.90;;;-144.05;95.05;56976.28;5090940;28;20108;-79
2024/02/04 05:00:22;;;;;;;32.03;20.10;;;6.90;99.90;;;-144.05;95.60;56991.13;5090584;28;20737;-79
2024/02/04 05:02:48;;;;;;;32.60;19.02;;;14.50;99.90;;;-144.05;95.07;57014.50;5091072;28;20110;-80
2024/02/04 05:05:14;;;;;;;30.92;20.23;;;13.80;99.90;;;-144.05;95.58;56993.25;5098577;28;20129;-80
2024/02/04 05:07:40;;;;;;;30.30;19.40;;;7.10;99.90;;;-144.05;95.05;56982.66;5090578;28;20016;-80
2024/02/04 05:10:07;;;;;;;35.67;22.38;;;9.90;99.90;;;-144.05;96.16;56999.63;5105652;28;20391;-80
2024/02/04 05:12:36;;;;;;;42.55;24.83;;;8.10;99.90;;;-144.05;96.70;57006.00;5091501;28;20089;-79
2024/02/04 05:15:02;;;;;;;35.05;24.52;;;8.50;99.90;;;-144.05;96.04;57001.75;5105510;28;20110;-80
2024/02/04 05:17:28;;;;;;;36.28;22.92;;;8.30;99.90;;;-144.05;96.41;56995.38;5095050;28;20028;-82
2024/02/04 05:19:53;;;;;;;36.03;22.67;;;8.30;99.90;;;-144.05;95.26;56997.50;5094004;28;20016;-81
2024/02/04 05:22:20;;;;;;;31.83;21.08;;;;;;;-144.05;94.77;57012.38;5094837;28;20145;-81
2024/02/04 05:24:46;;;;;;;33.70;21.38;;;;;;;-144.05;94.04;57012.38;5096188;28;20074;-76
2024/02/04 05:27:12;;;;;;;34.47;22.30;;;;;;;-144.05;94.13;56997.50;5094315;28;20016;-81
2024/02/04 05:29:38;;;;;;;35.63;21.05;;;;;;;-144.05;94.19;56989.00;5099586;28;20114;-81
2024/02/04 05:32:05;;;;;;;34.30;21.15;;;;;;;-144.05;94.74;56982.66;5095197;28;20020;-80
2024/02/04 05:34:34;;;;;;;32.67;19.35;;;;;;;-144.05;94.82;57008.13;5100305;28;20028;-80
2024/02/04 05:37:00;;;;;;;33.17;21.23;;;;;;;-144.05;94.15;57001.75;5092873;28;20544;-77
2024/02/04 05:39:26;;;;;;;32.83;21.10;;;8.10;99.90;;;-144.05;93.35;56986.91;5094039;28;20493;-79
2024/02/04 05:41:52;;;;;;;26.88;18.15;;;8.00;99.90;;;-144.05;93.81;57010.25;5093547;28;20024;-80
2024/02/04 05:44:18;;;;;;;26.63;18.30;;;;;;;-144.05;93.62;56995.38;5093020;28;20036;-81
2024/02/04 05:46:44;;;;;;;30.30;18.80;;;;;;;-144.05;94.26;57040.00;5093489;28;20496;-80
2024/02/04 05:49:10;;;;;;;29.25;20.20;;;7.90;99.90;;;-144.05;93.10;57001.75;5094064;28;20032;-79
2024/02/04 05:51:41;;;;;;;33.55;20.95;;;10.90;99.90;;;-144.05;93.75;57014.50;5095908;28;20028;-83
2024/02/04 05:54:08;;;;;;;29.30;18.85;;;7.80;99.90;;;-144.05;93.14;56993.25;5096562;28;20150;-82
2024/02/04 05:56:35;;;;;;;25.38;17.75;;;;;;;-144.05;91.93;57010.25;5095638;28;20027;-81
2024/02/04 05:59:00;;;;;;;27.88;18.92;;;7.50;99.90;;;-144.05;91.42;56993.25;5095447;28;20020;-80
2024/02/04 06:01:27;;;;;;;35.85;23.08;;;;;;;-144.05;91.42;56995.38;5095163;28;20035;-81
2024/02/04 06:03:53;;;;;;;33.90;22.58;;;7.10;99.90;;;-144.05;92.66;57023.00;5094645;28;20141;-83
2024/02/04 06:06:20;;;;;;;34.67;23.05;;;;;;;-144.05;92.09;56978.41;5103024;28;20504;-83
2024/02/04 06:08:49;;;;;;;36.53;21.80;;;10.00;99.90;;;-144.05;92.42;57006.00;5100109;28;20073;-79
2024/02/04 06:11:15;;;;;;;34.63;21.10;;;7.00;99.90;;;-144.05;92.51;56993.25;5113012;27;20069;-82
2024/02/04 06:13:44;;;;;;;31.10;20.55;;;7.90;99.90;;;-144.05;92.67;57016.63;5095858;28;20080;-80
2024/02/04 06:16:14;;;;;;;27.80;18.73;;;;;;;-144.05;92.80;57006.00;5093075;28;20020;-79
2024/02/04 06:18:41;;;;;;;30.85;19.40;;;;;;;-144.05;92.28;56989.00;5106259;28;20060;-78
2024/02/04 06:21:07;;;;;;;34.67;20.13;;;7.00;99.90;;;-144.05;92.56;56972.03;5096412;28;20030;-79
2024/02/04 06:23:34;;;;;;;30.77;18.48;;;;;;;-144.05;92.44;56995.38;5093862;28;20334;-80
2024/02/04 06:26:05;;;;;;;28.10;16.83;;;9.90;99.90;;;-144.05;92.31;57012.38;5092497;28;20024;-80
2024/02/04 06:28:30;;;;;;;27.95;17.83;;;14.30;99.90;;;-144.05;92.01;56997.50;5101750;28;20025;-79
2024/02/04 06:30:57;;;;;;;23.23;16.80;;;14.20;99.90;;;-144.05;93.21;57001.75;5100961;28;20024;-80
2024/02/04 06:33:24;;;;;;;27.40;16.85;;;7.00;99.90;;;-144.05;93.10;56984.78;5094642;28;20027;-78
2024/02/04 06:35:51;;;;;;;29.27;17.38;;;7.50;99.90;;;-144.05;92.47;56972.03;5098623;28;20020;-81
2024/02/04 06:38:16;;;;;;;28.90;17.67;;;14.50;99.90;;;-144.05;92.51;57012.38;5092449;28;20073;-79
2024/02/04 06:40:43;;;;;;;28.50;18.55;;;;;;;-144.05;93.48;57006.00;5094149;28;20024;-79
2024/02/04 06:43:09;;;;;;;28.13;18.77;;;7.00;99.90;;;-144.05;93.22;57001.75;5091310;28;20024;-80
2024/02/04 06:45:34;;;;;;;26.75;17.55;;;7.50;99.90;;;-144.05;92.79;57006.00;5099117;28;20050;-79
2024/02/04 06:48:00;;;;;;;30.85;20.27;;;7.20;99.90;;;-144.05;94.02;56997.50;5093786;28;20085;-80
2024/02/04 06:50:27;;;;;;;34.80;21.08;;;;;;;-144.05;93.85;56997.50;5093534;28;20104;-78
2024/02/04 06:52:53;;;;;;;35.88;22.42;;;10.90;99.90;;;-144.05;94.90;57014.50;5092634;28;20448;-79
2024/02/04 06:55:19;;;;;;;43.55;25.63;;;;;;;-144.05;95.47;57010.25;5093025;28;20115;-80
2024/02/04 06:57:45;;;;;;;40.95;25.10;;;7.00;99.90;;;-144.05;95.10;57008.13;5095129;28;20135;-78
2024/02/04 07:00:12;;;;;;;40.33;25.15;;;9.70;99.90;;;-144.05;95.68;57014.50;5098257;28;20104;-79
2024/02/04 07:02:38;;;;;;;37.38;23.70;;;7.90;99.90;;;-144.05;96.55;57016.63;5097107;28;20500;-79
2024/02/04 07:05:05;;;;;;;40.63;23.42;;;14.60;99.90;;;-144.05;96.19;56976.28;5094555;28;20060;-81
2024/02/04 07:07:30;;;;;;;40.20;23.65;;;7.00;99.90;;;-144.05;96.85;57012.38;5103612;28;20428;-78
2024/02/04 07:10:00;;;;;;;41.17;23.63;;;9.70;99.90;;;-144.05;96.25;56993.25;5096402;28;20020;-79
2024/02/04 07:12:25;;;;;;;37.70;23.08;;;6.70;99.90;;;-144.05;97.13;57018.75;5090446;28;20031;-80
2024/02/04 07:14:52;;;;;;;38.38;22.55;;;;;;;-144.05;96.92;57042.13;5092179;28;20024;-79
2024/02/04 07:17:17;;;;;;;35.47;21.48;;;6.90;99.90;;;-144.05;96.47;56991.13;5093495;28;20070;-80
2024/02/04 07:19:44;;;;;;;37.28;20.77;;;;;;;-144.05;97.07;57006.00;5093462;28;20020;-80
2024/02/04 07:22:10;;;;;;;39.55;22.45;;;;;;;-144.05;96.72;57012.38;5092146;28;20465;-78
2024/02/04 07:24:36;;;;;;;39.05;23.33;;;;;;;-144.05;96.22;56999.63;5098566;28;20034;-77
2024/02/04 07:27:03;;;;;;;35.95;20.23;;;7.20;99.90;;;-144.05;95.28;57001.75;5095230;28;20081;-78
2024/02/04 07:29:29;;;;;;;34.42;20.08;;;;;;;-144.05;96.35;57035.75;5094935;28;20507;-79
2024/02/04 07:31:55;;;;;;;37.92;22.35;;;11.00;99.90;;;-144.05;95.32;56989.00;5096789;28;20031;-80
2024/02/04 07:34:21;;;;;;;32.80;20.25;;;;;;;-144.05;95.19;56972.03;5092144;28;20048;-78
2024/02/04 07:36:47;;;;;;;30.05;17.75;;;14.70;99.90;;;-144.05;95.10;57029.38;5089955;28;20528;-80
2024/02/04 07:39:12;;;;;;;31.30;17.98;;;11.20;99.90;;;-144.05;94.61;57001.75;5097624;28;20032;-79
2024/02/04 07:41:38;;;;;;;31.50;18.10;;;7.10;99.90;;;-144.05;94.56;56995.38;5094416;28;20032;-80
2024/02/04 07:44:04;;;;;;;33.25;18.30;;;;;;;-144.05;94.14;57010.25;5098763;28;20031;-80
2024/02/04 07:46:31;;;;;;;29.23;18.05;;;14.50;99.90;;;-144.05;93.48;57003.88;5101489;28;20443;-78
2024/02/04 07:48:57;;;;;;;29.55;19.23;;;;;;;-144.05;93.58;56989.00;5103430;28;20027;-80
2024/02/04 07:51:23;;;;;;;27.80;18.52;;;14.60;99.90;;;-144.05;93.88;57014.50;5093786;28;20097;-80
2024/02/04 07:53:49;;;;;;;30.73;17.70;;;14.30;99.90;;;-144.05;93.34;57031.50;5091801;28;20027;-82
2024/02/04 07:56:15;;;;;;;31.33;19.10;;;;;;;-144.05;92.90;56993.25;5101717;28;20492;-79
2024/02/04 07:58:41;;;;;;;25.75;15.50;;;7.30;99.90;;;-144.05;92.85;57020.88;5109684;28;20024;-80
2024/02/04 08:01:08;;;;;;;26.25;16.52;;;;;;;-144.05;92.00;56978.41;5094090;28;20278;-82
2024/02/04 08:03:34;;;;;;;24.52;15.88;;;;;;;-144.05;92.36;56991.13;5092886;28;20123;-79
2024/02/04 08:06:02;;;;;;;23.15;14.98;;;6.70;99.90;;;-144.05;92.94;57006.00;5091785;28;20062;-80
2024/02/04 08:08:30;;;;;;;21.77;14.52;;;;;;;-144.05;92.32;57014.50;5095717;28;20508;-79
2024/02/04 08:10:56;;;;;;;24.40;15.60;;;14.50;99.90;;;-144.05;92.20;57006.00;5094043;28;20048;-80
2024/02/04 08:13:22;;;;;;;22.20;14.85;;;7.90;99.90;;;-144.05;92.60;56984.78;5095301;28;20031;-79
2024/02/04 08:15:48;;;;;;;23.35;13.68;;;;;;;-144.05;92.76;56989.00;5097692;28;20077;-80
2024/02/04 08:18:14;;;;;;;20.65;12.98;;;;;;;-144.05;92.06;57020.88;5092684;28;20020;-78
2024/02/04 08:20:40;;;;;;;22.00;12.77;;;7.60;99.90;;;-144.05;91.81;57018.75;5093742;28;20024;-78
2024/02/04 08:23:07;;;;;;;21.25;13.45;;;;;;;-144.05;92.14;56989.00;5092229;28;20549;-81
2024/02/04 08:25:33;;;;;;;20.13;11.70;;;13.70;99.90;;;-144.05;92.23;57006.00;5096059;28;20031;-77
2024/02/04 08:27:59;;;;;;;18.38;11.27;;;14.10;99.90;;;-144.05;93.06;56965.66;5093776;28;20096;-79
2024/02/04 08:30:25;;;;;;;18.73;10.65;;;;;;;-144.05;92.72;57003.88;5090832;28;20023;-81
2024/02/04 08:32:51;;;;;;;18.48;11.30;;;14.50;99.90;;;-144.05;91.76;57025.13;5089817;28;20019;-78
2024/02/04 08:35:17;;;;;;;21.85;10.90;;;7.60;99.90;;;-144.05;91.12;57031.50;5090589;28;20508;-79
2024/02/04 08:37:43;;;;;;;14.30;10.23;;;8.40;99.90;;;-144.05;91.43;56984.78;5091338;28;20058;-78
2024/02/04 08:40:10;;;;;;;15.38;9.50;;;7.30;99.90;;;-144.05;90.97;57016.63;5093185;28;20131;-77
2024/02/04 08:42:36;;;;;;;14.43;9.70;;;14.60;99.90;;;-144.05;90.65;57006.00;5098110;28;20141;-78
2024/02/04 08:45:03;;;;;;;12.75;7.93;;;;;;;-144.05;89.65;56963.53;5090766;28;20017;-78
2024/02/04 08:47:29;;;;;;;9.75;8.25;;;7.40;99.90;;;-144.05;89.16;56986.91;5092357;28;20128;-80
2024/02/04 08:49:55;;;;;;;16.27;7.85;;;;;;;-144.05;89.88;57042.13;5109852;28;20096;-81
2024/02/04 08:52:21;;;;;;;13.10;7.25;;;14.20;99.90;;;-144.05;88.94;56995.38;5111446;28;20050;-80
2024/02/04 08:54:47;;;;;;;9.00;7.03;;;7.80;99.90;;;-144.05;88.86;57003.88;5094752;28;20596;-78
2024/02/04 08:57:13;;;;;;;9.85;7.35;;;;;;;-144.05;88.25;57018.75;5094252;28;20130;-82
2024/02/04 08:59:39;;;;;;;9.20;6.65;;;8.70;99.90;;;-144.05;87.72;57001.75;5094245;28;20024;-82
2024/02/04 09:02:05;;;;;;;8.32;5.88;;;7.90;99.90;;;-144.05;87.91;57014.50;5101472;28;20032;-81
2024/02/04 09:04:31;;;;;;;8.90;6.15;;;;;;;-144.05;87.28;56993.25;5097867;28;20039;-82
2024/02/04 09:06:57;;;;;;;7.75;6.30;;;8.70;99.90;;;-144.05;87.48;57025.13;5094305;28;20026;-78
2024/02/04 09:09:23;;;;;;;10.02;5.82;;;;;;;-144.05;87.45;56997.50;5101010;28;20048;-82
2024/02/04 09:11:49;;;;;;;9.05;5.40;;;7.50;99.90;;;-144.05;87.53;56974.16;5115548;28;20055;-82
2024/02/04 09:14:15;;;;;;;7.68;5.63;;;9.00;99.90;;;-144.05;86.90;57010.25;5104303;28;20028;-83
2024/02/04 09:16:41;;;;;;;8.90;6.22;;;7.70;99.90;;;-144.05;86.87;56999.63;5111492;28;20016;-82
2024/02/04 09:19:07;;;;;;;9.73;6.35;;;;;;;-144.05;87.39;56984.78;5102155;28;20069;-82
2024/02/04 09:21:33;;;;;;;9.43;6.47;;;14.20;99.90;;;-144.05;87.43;56991.13;5105410;28;20485;-80
2024/02/04 09:23:59;;;;;;;10.05;6.18;;;14.20;99.90;;;-144.05;87.15;57003.88;5097413;28;20028;-82
2024/02/04 09:26:25;;;;;;;8.82;5.95;;;13.90;99.90;;;-144.05;86.21;56982.66;5113090;28;20027;-80
2024/02/04 09:28:50;;;;;;;9.73;5.60;;;7.50;99.90;;;-144.05;86.00;57010.25;5128989;28;20032;-79
2024/02/04 09:31:16;;;;;;;11.20;5.40;;;8.20;99.90;;;-144.05;85.86;57001.75;5105519;28;20058;-80
2024/02/04 09:33:43;;;;;;;9.25;5.45;;;;;;;-144.05;86.10;56999.63;5101426;28;20023;-80
2024/02/04 09:36:09;;;;;;;7.18;4.10;;;14.20;99.90;;;-144.05;85.79;56995.38;5112068;28;20019;-80
2024/02/04 09:38:35;;;;;;;5.50;4.28;;;;;;;-144.05;86.05;56976.28;5100814;28;20024;-80
2024/02/04 09:41:05;;;;;;;5.72;3.50;;;7.40;99.90;;;-144.05;86.21;57008.13;5101504;28;20341;-80
2024/02/04 09:43:32;;;;;;;5.57;2.90;;;14.40;99.90;;;-144.05;86.67;56972.03;5102471;28;20032;-79
2024/02/04 09:46:00;;;;;;;4.10;2.70;;;9.90;99.90;;;-144.05;87.40;56972.03;5098124;28;20050;-80
2024/02/04 09:48:33;;;;;;;4.13;2.15;;;9.90;99.90;;;-144.05;87.40;56993.25;5109073;28;20469;-78
2024/02/04 09:50:59;;;;;;;3.88;2.50;;;7.20;99.90;;;-144.05;88.05;57014.50;5094479;28;20024;-79
2024/02/04 09:53:36;;;;;;;3.70;2.08;;;9.70;99.90;;;-144.05;88.33;57012.38;5108963;28;20032;-78
2024/02/04 09:56:06;;;;;;;3.97;2.53;;;7.20;99.90;;;-144.05;88.51;57023.00;5096863;28;20103;-81
2024/02/04 09:58:33;;;;;;;2.65;2.40;;;7.40;99.90;;;-144.05;88.45;57023.00;5099418;28;20031;-80
2024/02/04 10:01:00;;;;;;;6.47;4.72;;;9.60;99.90;;;-144.05;88.73;57006.00;5096701;28;20024;-79
2024/02/04 10:03:27;;;;;;;6.90;3.05;;;8.10;99.90;;;-144.05;89.22;56999.63;5100183;28;20035;-80
2024/02/04 10:05:53;;;;;;;5.43;3.03;;;;;;;-144.05;88.67;57001.75;5100367;28;20036;-79
2024/02/04 10:08:21;;;;;;;5.50;3.63;;;8.30;99.90;;;-144.05;89.81;57008.13;5101328;28;20059;-78
2024/02/04 10:10:48;;;;;;;8.13;6.65;;;7.90;99.90;;;-144.05;92.69;57008.13;5105179;28;20078;-81
2024/02/04 10:13:14;;;;;;;9.18;6.47;;;9.60;99.90;;;-144.05;92.92;57012.38;5098995;28;20063;-80
2024/02/04 10:15:40;;;;;;;10.63;5.13;;;6.90;99.90;;;-144.05;91.61;56986.91;5110011;28;20448;-81
2024/02/04 10:18:08;;;;;;;6.05;3.05;;;;;;;-144.05;91.77;57033.63;5106093;28;20024;-80
2024/02/04 10:20:34;;;;;;;2.65;2.40;;;7.60;99.90;;;-144.05;92.38;56995.38;5118242;28;20016;-78
2024/02/04 10:23:00;;;;;;;6.65;3.78;;;8.00;99.90;;;-144.05;92.71;57010.25;5101265;28;20099;-83